sensor_id;sensor_type;location;lat;lon;timestamp;P1;durP1;ratioP1;P2;durP2;ratioP2
35550;SDS011;21655;46.056;13.616;2023-08-12T00:00:50;6.78;;;4.07;;
35550;SDS011;21655;46.056;13.616;2023-08-12T00:03:15;11.25;;;4.03;;
35550;SDS011;21655;46.056;13.616;2023-08-12T00:05:41;6.22;;;3.90;;
35550;SDS011;21655;46.056;13.616;2023-08-12T00:08:08;8.38;;;3.60;;
35550;SDS011;21655;46.056;13.616;2023-08-12T00:10:33;7.90;;;3.90;;
35550;SDS011;21655;46.056;13.616;2023-08-12T00:12:59;7.93;;;4.22;;
35550;SDS011;21655;46.056;13.616;2023-08-12T00:15:24;9.98;;;4.15;;
35550;SDS011;21655;46.056;13.616;2023-08-12T00:17:50;7.82;;;4.20;;
35550;SDS011;21655;46.056;13.616;2023-08-12T00:20:15;6.80;;;4.30;;
35550;SDS011;21655;46.056;13.616;2023-08-12T00:22:41;6.65;;;3.95;;
35550;SDS011;21655;46.056;13.616;2023-08-12T00:25:07;7.65;;;4.20;;
35550;SDS011;21655;46.056;13.616;2023-08-12T00:27:32;7.32;;;3.90;;
35550;SDS011;21655;46.056;13.616;2023-08-12T00:29:58;8.73;;;4.10;;
35550;SDS011;21655;46.056;13.616;2023-08-12T00:32:24;9.20;;;4.45;;
35550;SDS011;21655;46.056;13.616;2023-08-12T00:34:49;9.70;;;4.13;;
35550;SDS011;21655;46.056;13.616;2023-08-12T00:37:14;7.25;;;4.63;;
35550;SDS011;21655;46.056;13.616;2023-08-12T00:39:40;9.23;;;4.20;;
35550;SDS011;21655;46.056;13.616;2023-08-12T00:42:06;7.32;;;4.07;;
35550;SDS011;21655;46.056;13.616;2023-08-12T00:44:31;12.43;;;4.40;;
35550;SDS011;21655;46.056;13.616;2023-08-12T00:46:56;6.80;;;4.28;;
35550;SDS011;21655;46.056;13.616;2023-08-12T00:49:23;8.75;;;4.07;;
35550;SDS011;21655;46.056;13.616;2023-08-12T00:51:49;7.05;;;4.15;;
35550;SDS011;21655;46.056;13.616;2023-08-12T00:54:16;12.02;;;4.60;;
35550;SDS011;21655;46.056;13.616;2023-08-12T00:56:43;8.15;;;4.00;;
35550;SDS011;21655;46.056;13.616;2023-08-12T00:59:09;8.68;;;4.50;;
35550;SDS011;21655;46.056;13.616;2023-08-12T01:01:39;12.18;;;4.05;;
35550;SDS011;21655;46.056;13.616;2023-08-12T01:04:09;12.60;;;4.30;;
35550;SDS011;21655;46.056;13.616;2023-08-12T01:06:34;7.05;;;4.22;;
35550;SDS011;21655;46.056;13.616;2023-08-12T01:09:00;6.70;;;4.35;;
35550;SDS011;21655;46.056;13.616;2023-08-12T01:14:25;9.65;;;4.45;;
35550;SDS011;21655;46.056;13.616;2023-08-12T01:17:02;11.23;;;4.60;;
35550;SDS011;21655;46.056;13.616;2023-08-12T01:19:34;5.95;;;4.28;;
35550;SDS011;21655;46.056;13.616;2023-08-12T01:22:01;7.18;;;4.43;;
35550;SDS011;21655;46.056;13.616;2023-08-12T01:24:27;6.50;;;4.03;;
35550;SDS011;21655;46.056;13.616;2023-08-12T01:27:00;8.47;;;4.33;;
35550;SDS011;21655;46.056;13.616;2023-08-12T01:29:26;9.20;;;4.80;;
35550;SDS011;21655;46.056;13.616;2023-08-12T01:31:53;7.22;;;4.45;;
35550;SDS011;21655;46.056;13.616;2023-08-12T01:36:58;7.50;;;4.47;;
35550;SDS011;21655;46.056;13.616;2023-08-12T01:39:25;7.40;;;4.22;;
35550;SDS011;21655;46.056;13.616;2023-08-12T01:41:52;6.90;;;4.20;;
35550;SDS011;21655;46.056;13.616;2023-08-12T01:44:18;8.45;;;4.13;;
35550;SDS011;21655;46.056;13.616;2023-08-12T01:46:44;12.15;;;4.30;;
35550;SDS011;21655;46.056;13.616;2023-08-12T01:49:10;11.35;;;4.38;;
35550;SDS011;21655;46.056;13.616;2023-08-12T01:51:35;9.68;;;4.28;;
35550;SDS011;21655;46.056;13.616;2023-08-12T01:54:00;11.02;;;4.55;;
35550;SDS011;21655;46.056;13.616;2023-08-12T01:56:26;6.82;;;4.40;;
35550;SDS011;21655;46.056;13.616;2023-08-12T01:58:52;12.93;;;4.47;;
35550;SDS011;21655;46.056;13.616;2023-08-12T02:01:17;11.25;;;4.38;;
35550;SDS011;21655;46.056;13.616;2023-08-12T02:03:42;8.20;;;4.15;;
35550;SDS011;21655;46.056;13.616;2023-08-12T02:06:08;12.57;;;4.70;;
35550;SDS011;21655;46.056;13.616;2023-08-12T02:08:33;10.77;;;4.65;;
35550;SDS011;21655;46.056;13.616;2023-08-12T02:10:59;13.02;;;4.68;;
35550;SDS011;21655;46.056;13.616;2023-08-12T02:13:24;6.55;;;4.35;;
35550;SDS011;21655;46.056;13.616;2023-08-12T02:15:50;5.55;;;4.10;;
35550;SDS011;21655;46.056;13.616;2023-08-12T02:18:15;10.98;;;4.90;;
35550;SDS011;21655;46.056;13.616;2023-08-12T02:20:41;9.85;;;4.47;;
35550;SDS011;21655;46.056;13.616;2023-08-12T02:23:06;11.57;;;4.53;;
35550;SDS011;21655;46.056;13.616;2023-08-12T02:25:32;7.72;;;4.32;;
35550;SDS011;21655;46.056;13.616;2023-08-12T02:27:57;7.80;;;4.78;;
35550;SDS011;21655;46.056;13.616;2023-08-12T02:30:23;11.18;;;4.32;;
35550;SDS011;21655;46.056;13.616;2023-08-12T02:32:48;7.35;;;4.55;;
35550;SDS011;21655;46.056;13.616;2023-08-12T02:35:15;9.73;;;4.70;;
35550;SDS011;21655;46.056;13.616;2023-08-12T02:37:43;6.97;;;4.72;;
35550;SDS011;21655;46.056;13.616;2023-08-12T02:40:09;7.38;;;4.60;;
35550;SDS011;21655;46.056;13.616;2023-08-12T02:42:35;8.32;;;4.43;;
35550;SDS011;21655;46.056;13.616;2023-08-12T02:45:01;8.85;;;4.30;;
35550;SDS011;21655;46.056;13.616;2023-08-12T02:47:27;7.85;;;3.85;;
35550;SDS011;21655;46.056;13.616;2023-08-12T02:49:52;10.10;;;4.78;;
35550;SDS011;21655;46.056;13.616;2023-08-12T02:52:18;9.55;;;4.50;;
35550;SDS011;21655;46.056;13.616;2023-08-12T02:54:43;7.20;;;4.20;;
35550;SDS011;21655;46.056;13.616;2023-08-12T02:57:09;7.43;;;4.55;;
35550;SDS011;21655;46.056;13.616;2023-08-12T02:59:34;9.82;;;4.70;;
35550;SDS011;21655;46.056;13.616;2023-08-12T03:02:00;9.55;;;4.00;;
35550;SDS011;21655;46.056;13.616;2023-08-12T03:04:25;9.35;;;4.43;;
35550;SDS011;21655;46.056;13.616;2023-08-12T03:06:51;7.85;;;4.50;;
35550;SDS011;21655;46.056;13.616;2023-08-12T03:09:16;6.15;;;4.05;;
35550;SDS011;21655;46.056;13.616;2023-08-12T03:11:43;6.90;;;4.47;;
35550;SDS011;21655;46.056;13.616;2023-08-12T03:14:09;16.48;;;4.30;;
35550;SDS011;21655;46.056;13.616;2023-08-12T03:16:34;9.68;;;4.47;;
35550;SDS011;21655;46.056;13.616;2023-08-12T03:19:00;6.78;;;4.13;;
35550;SDS011;21655;46.056;13.616;2023-08-12T03:21:25;8.63;;;4.60;;
35550;SDS011;21655;46.056;13.616;2023-08-12T03:23:51;6.30;;;4.53;;
35550;SDS011;21655;46.056;13.616;2023-08-12T03:26:17;8.35;;;4.90;;
35550;SDS011;21655;46.056;13.616;2023-08-12T03:28:42;9.23;;;4.60;;
35550;SDS011;21655;46.056;13.616;2023-08-12T03:31:07;7.47;;;4.50;;
35550;SDS011;21655;46.056;13.616;2023-08-12T03:33:33;6.65;;;4.47;;
35550;SDS011;21655;46.056;13.616;2023-08-12T03:35:58;8.50;;;4.75;;
35550;SDS011;21655;46.056;13.616;2023-08-12T03:38:24;9.57;;;5.07;;
35550;SDS011;21655;46.056;13.616;2023-08-12T03:40:50;9.90;;;5.20;;
35550;SDS011;21655;46.056;13.616;2023-08-12T03:43:15;12.65;;;4.72;;
35550;SDS011;21655;46.056;13.616;2023-08-12T03:45:42;10.75;;;4.13;;
35550;SDS011;21655;46.056;13.616;2023-08-12T03:48:08;6.50;;;4.53;;
35550;SDS011;21655;46.056;13.616;2023-08-12T03:50:34;8.80;;;4.40;;
35550;SDS011;21655;46.056;13.616;2023-08-12T03:53:00;8.63;;;4.72;;
35550;SDS011;21655;46.056;13.616;2023-08-12T03:55:26;7.40;;;4.70;;
35550;SDS011;21655;46.056;13.616;2023-08-12T03:57:51;9.60;;;5.22;;
35550;SDS011;21655;46.056;13.616;2023-08-12T04:00:17;7.82;;;4.75;;
35550;SDS011;21655;46.056;13.616;2023-08-12T04:02:43;8.90;;;4.68;;
35550;SDS011;21655;46.056;13.616;2023-08-12T04:05:08;8.68;;;4.63;;
35550;SDS011;21655;46.056;13.616;2023-08-12T04:07:35;10.52;;;5.22;;
35550;SDS011;21655;46.056;13.616;2023-08-12T04:10:01;11.07;;;4.97;;
35550;SDS011;21655;46.056;13.616;2023-08-12T04:12:27;6.63;;;4.38;;
35550;SDS011;21655;46.056;13.616;2023-08-12T04:14:53;11.18;;;4.50;;
35550;SDS011;21655;46.056;13.616;2023-08-12T04:17:18;7.35;;;5.05;;
35550;SDS011;21655;46.056;13.616;2023-08-12T04:19:43;11.63;;;4.60;;
35550;SDS011;21655;46.056;13.616;2023-08-12T04:22:09;9.00;;;5.15;;
35550;SDS011;21655;46.056;13.616;2023-08-12T04:24:34;10.55;;;4.88;;
35550;SDS011;21655;46.056;13.616;2023-08-12T04:27:00;7.45;;;4.45;;
35550;SDS011;21655;46.056;13.616;2023-08-12T04:29:25;13.05;;;5.28;;
35550;SDS011;21655;46.056;13.616;2023-08-12T04:31:51;8.88;;;5.05;;
35550;SDS011;21655;46.056;13.616;2023-08-12T04:34:18;12.65;;;5.40;;
35550;SDS011;21655;46.056;13.616;2023-08-12T04:36:43;7.45;;;4.75;;
35550;SDS011;21655;46.056;13.616;2023-08-12T04:39:09;11.18;;;4.90;;
35550;SDS011;21655;46.056;13.616;2023-08-12T04:41:35;13.75;;;5.38;;
35550;SDS011;21655;46.056;13.616;2023-08-12T04:44:01;7.00;;;4.78;;
35550;SDS011;21655;46.056;13.616;2023-08-12T04:46:27;10.85;;;4.63;;
35550;SDS011;21655;46.056;13.616;2023-08-12T04:48:52;8.93;;;4.38;;
35550;SDS011;21655;46.056;13.616;2023-08-12T04:51:18;7.07;;;4.00;;
35550;SDS011;21655;46.056;13.616;2023-08-12T04:53:43;9.30;;;4.68;;
35550;SDS011;21655;46.056;13.616;2023-08-12T04:56:09;9.90;;;4.57;;
35550;SDS011;21655;46.056;13.616;2023-08-12T04:58:34;7.68;;;3.88;;
35550;SDS011;21655;46.056;13.616;2023-08-12T05:01:00;8.43;;;4.13;;
35550;SDS011;21655;46.056;13.616;2023-08-12T05:03:26;9.82;;;4.28;;
35550;SDS011;21655;46.056;13.616;2023-08-12T05:05:51;10.50;;;4.30;;
35550;SDS011;21655;46.056;13.616;2023-08-12T05:08:17;8.23;;;4.30;;
35550;SDS011;21655;46.056;13.616;2023-08-12T05:10:43;6.10;;;4.03;;
35550;SDS011;21655;46.056;13.616;2023-08-12T05:13:09;9.05;;;4.60;;
35550;SDS011;21655;46.056;13.616;2023-08-12T05:15:34;5.60;;;4.18;;
35550;SDS011;21655;46.056;13.616;2023-08-12T05:18:02;7.88;;;4.38;;
35550;SDS011;21655;46.056;13.616;2023-08-12T05:20:27;6.60;;;4.20;;
35550;SDS011;21655;46.056;13.616;2023-08-12T05:22:53;9.52;;;4.15;;
35550;SDS011;21655;46.056;13.616;2023-08-12T05:25:18;7.20;;;3.40;;
35550;SDS011;21655;46.056;13.616;2023-08-12T05:27:44;6.80;;;3.75;;
35550;SDS011;21655;46.056;13.616;2023-08-12T05:30:09;7.00;;;3.17;;
35550;SDS011;21655;46.056;13.616;2023-08-12T05:32:35;11.20;;;3.42;;
35550;SDS011;21655;46.056;13.616;2023-08-12T05:35:01;6.10;;;3.75;;
35550;SDS011;21655;46.056;13.616;2023-08-12T05:37:26;6.85;;;3.00;;
35550;SDS011;21655;46.056;13.616;2023-08-12T05:39:52;5.78;;;3.05;;
35550;SDS011;21655;46.056;13.616;2023-08-12T05:42:17;5.22;;;3.50;;
35550;SDS011;21655;46.056;13.616;2023-08-12T05:44:43;4.53;;;3.15;;
35550;SDS011;21655;46.056;13.616;2023-08-12T05:47:08;8.50;;;3.08;;
35550;SDS011;21655;46.056;13.616;2023-08-12T05:49:34;7.03;;;3.00;;
35550;SDS011;21655;46.056;13.616;2023-08-12T05:51:59;5.60;;;2.92;;
35550;SDS011;21655;46.056;13.616;2023-08-12T05:54:25;12.52;;;3.83;;
35550;SDS011;21655;46.056;13.616;2023-08-12T05:56:50;4.70;;;2.60;;
35550;SDS011;21655;46.056;13.616;2023-08-12T05:59:16;5.95;;;2.63;;
35550;SDS011;21655;46.056;13.616;2023-08-12T06:01:41;4.47;;;2.58;;
35550;SDS011;21655;46.056;13.616;2023-08-12T06:04:07;5.53;;;2.95;;
35550;SDS011;21655;46.056;13.616;2023-08-12T06:06:32;5.88;;;2.80;;
35550;SDS011;21655;46.056;13.616;2023-08-12T06:08:57;9.43;;;3.03;;
35550;SDS011;21655;46.056;13.616;2023-08-12T06:11:23;6.55;;;2.22;;
35550;SDS011;21655;46.056;13.616;2023-08-12T06:13:48;6.32;;;2.40;;
35550;SDS011;21655;46.056;13.616;2023-08-12T06:16:14;4.40;;;2.30;;
35550;SDS011;21655;46.056;13.616;2023-08-12T06:18:40;7.13;;;2.60;;
35550;SDS011;21655;46.056;13.616;2023-08-12T06:21:05;4.43;;;2.55;;
35550;SDS011;21655;46.056;13.616;2023-08-12T06:23:31;3.72;;;2.30;;
35550;SDS011;21655;46.056;13.616;2023-08-12T06:25:56;5.53;;;2.30;;
35550;SDS011;21655;46.056;13.616;2023-08-12T06:28:22;3.25;;;2.25;;
35550;SDS011;21655;46.056;13.616;2023-08-12T06:30:47;5.63;;;2.80;;
35550;SDS011;21655;46.056;13.616;2023-08-12T06:33:14;5.63;;;2.35;;
35550;SDS011;21655;46.056;13.616;2023-08-12T06:35:40;8.23;;;2.90;;
35550;SDS011;21655;46.056;13.616;2023-08-12T06:38:05;13.48;;;3.40;;
35550;SDS011;21655;46.056;13.616;2023-08-12T06:40:31;6.43;;;3.05;;
35550;SDS011;21655;46.056;13.616;2023-08-12T06:42:56;4.75;;;2.40;;
35550;SDS011;21655;46.056;13.616;2023-08-12T06:45:22;5.70;;;2.17;;
35550;SDS011;21655;46.056;13.616;2023-08-12T06:47:47;5.20;;;2.40;;
35550;SDS011;21655;46.056;13.616;2023-08-12T06:50:12;5.32;;;2.25;;
35550;SDS011;21655;46.056;13.616;2023-08-12T06:52:38;4.00;;;2.58;;
35550;SDS011;21655;46.056;13.616;2023-08-12T06:55:03;7.00;;;2.47;;
35550;SDS011;21655;46.056;13.616;2023-08-12T06:57:29;3.55;;;2.45;;
35550;SDS011;21655;46.056;13.616;2023-08-12T06:59:55;4.22;;;2.28;;
35550;SDS011;21655;46.056;13.616;2023-08-12T07:02:20;5.90;;;2.70;;
35550;SDS011;21655;46.056;13.616;2023-08-12T07:04:46;5.45;;;2.03;;
35550;SDS011;21655;46.056;13.616;2023-08-12T07:07:11;7.72;;;2.70;;
35550;SDS011;21655;46.056;13.616;2023-08-12T07:09:37;5.95;;;2.50;;
35550;SDS011;21655;46.056;13.616;2023-08-12T07:12:02;5.22;;;2.40;;
35550;SDS011;21655;46.056;13.616;2023-08-12T07:14:29;3.83;;;2.60;;
35550;SDS011;21655;46.056;13.616;2023-08-12T07:16:55;5.55;;;2.33;;
35550;SDS011;21655;46.056;13.616;2023-08-12T07:19:20;5.80;;;2.83;;
35550;SDS011;21655;46.056;13.616;2023-08-12T07:21:46;6.18;;;2.55;;
35550;SDS011;21655;46.056;13.616;2023-08-12T07:24:11;8.30;;;2.40;;
35550;SDS011;21655;46.056;13.616;2023-08-12T07:26:36;7.60;;;2.50;;
35550;SDS011;21655;46.056;13.616;2023-08-12T07:29:02;4.80;;;2.38;;
35550;SDS011;21655;46.056;13.616;2023-08-12T07:31:27;3.47;;;2.60;;
35550;SDS011;21655;46.056;13.616;2023-08-12T07:33:53;6.75;;;2.42;;
35550;SDS011;21655;46.056;13.616;2023-08-12T07:36:18;5.45;;;2.42;;
35550;SDS011;21655;46.056;13.616;2023-08-12T07:38:44;5.75;;;2.22;;
35550;SDS011;21655;46.056;13.616;2023-08-12T07:41:09;10.15;;;3.10;;
35550;SDS011;21655;46.056;13.616;2023-08-12T07:43:35;5.50;;;2.38;;
35550;SDS011;21655;46.056;13.616;2023-08-12T07:46:00;4.68;;;2.13;;
35550;SDS011;21655;46.056;13.616;2023-08-12T07:48:26;3.80;;;1.95;;
35550;SDS011;21655;46.056;13.616;2023-08-12T07:50:54;5.88;;;2.10;;
35550;SDS011;21655;46.056;13.616;2023-08-12T07:53:21;4.03;;;2.60;;
35550;SDS011;21655;46.056;13.616;2023-08-12T07:55:47;4.75;;;1.90;;
35550;SDS011;21655;46.056;13.616;2023-08-12T07:58:12;6.22;;;2.63;;
35550;SDS011;21655;46.056;13.616;2023-08-12T08:00:38;6.10;;;2.05;;
35550;SDS011;21655;46.056;13.616;2023-08-12T08:03:04;4.28;;;2.30;;
35550;SDS011;21655;46.056;13.616;2023-08-12T08:05:30;4.28;;;2.40;;
35550;SDS011;21655;46.056;13.616;2023-08-12T08:07:55;6.97;;;2.97;;
35550;SDS011;21655;46.056;13.616;2023-08-12T08:10:21;5.03;;;2.20;;
35550;SDS011;21655;46.056;13.616;2023-08-12T08:12:47;4.68;;;2.80;;
35550;SDS011;21655;46.056;13.616;2023-08-12T08:15:12;6.22;;;3.03;;
35550;SDS011;21655;46.056;13.616;2023-08-12T08:17:38;8.15;;;2.45;;
35550;SDS011;21655;46.056;13.616;2023-08-12T08:20:03;3.70;;;2.35;;
35550;SDS011;21655;46.056;13.616;2023-08-12T08:22:30;4.63;;;2.30;;
35550;SDS011;21655;46.056;13.616;2023-08-12T08:24:56;7.30;;;2.63;;
35550;SDS011;21655;46.056;13.616;2023-08-12T08:27:22;7.20;;;2.92;;
35550;SDS011;21655;46.056;13.616;2023-08-12T08:29:47;4.70;;;2.30;;
35550;SDS011;21655;46.056;13.616;2023-08-12T08:32:13;6.13;;;2.03;;
35550;SDS011;21655;46.056;13.616;2023-08-12T08:34:38;3.88;;;2.10;;
35550;SDS011;21655;46.056;13.616;2023-08-12T08:37:04;5.03;;;2.35;;
35550;SDS011;21655;46.056;13.616;2023-08-12T08:39:30;6.25;;;2.35;;
35550;SDS011;21655;46.056;13.616;2023-08-12T08:41:56;6.20;;;2.20;;
35550;SDS011;21655;46.056;13.616;2023-08-12T08:44:21;4.65;;;2.13;;
35550;SDS011;21655;46.056;13.616;2023-08-12T08:46:49;4.00;;;2.00;;
35550;SDS011;21655;46.056;13.616;2023-08-12T08:49:18;4.53;;;2.17;;
35550;SDS011;21655;46.056;13.616;2023-08-12T08:51:45;3.60;;;1.92;;
35550;SDS011;21655;46.056;13.616;2023-08-12T08:54:12;5.45;;;1.80;;
35550;SDS011;21655;46.056;13.616;2023-08-12T08:56:38;4.65;;;2.20;;
35550;SDS011;21655;46.056;13.616;2023-08-12T08:59:04;4.00;;;2.50;;
35550;SDS011;21655;46.056;13.616;2023-08-12T09:01:29;3.10;;;1.90;;
35550;SDS011;21655;46.056;13.616;2023-08-12T09:03:57;3.90;;;1.98;;
35550;SDS011;21655;46.056;13.616;2023-08-12T09:06:26;5.13;;;2.40;;
35550;SDS011;21655;46.056;13.616;2023-08-12T09:08:53;4.13;;;2.20;;
35550;SDS011;21655;46.056;13.616;2023-08-12T09:11:19;6.32;;;2.75;;
35550;SDS011;21655;46.056;13.616;2023-08-12T09:13:46;5.40;;;2.42;;
35550;SDS011;21655;46.056;13.616;2023-08-12T09:16:12;8.73;;;3.15;;
35550;SDS011;21655;46.056;13.616;2023-08-12T09:18:39;10.65;;;3.47;;
35550;SDS011;21655;46.056;13.616;2023-08-12T09:21:05;5.22;;;2.58;;
35550;SDS011;21655;46.056;13.616;2023-08-12T09:23:37;6.68;;;3.00;;
35550;SDS011;21655;46.056;13.616;2023-08-12T09:26:13;6.55;;;2.38;;
35550;SDS011;21655;46.056;13.616;2023-08-12T09:28:41;4.05;;;2.10;;
35550;SDS011;21655;46.056;13.616;2023-08-12T09:31:07;6.68;;;2.60;;
35550;SDS011;21655;46.056;13.616;2023-08-12T09:33:33;3.75;;;1.98;;
35550;SDS011;21655;46.056;13.616;2023-08-12T09:36:04;6.20;;;1.92;;
35550;SDS011;21655;46.056;13.616;2023-08-12T09:38:30;5.70;;;1.90;;
35550;SDS011;21655;46.056;13.616;2023-08-12T09:40:56;4.90;;;2.33;;
35550;SDS011;21655;46.056;13.616;2023-08-12T09:43:27;5.97;;;2.35;;
35550;SDS011;21655;46.056;13.616;2023-08-12T09:45:55;2.85;;;1.80;;
35550;SDS011;21655;46.056;13.616;2023-08-12T09:48:22;4.25;;;2.10;;
35550;SDS011;21655;46.056;13.616;2023-08-12T09:50:48;6.45;;;1.98;;
35550;SDS011;21655;46.056;13.616;2023-08-12T09:53:15;3.95;;;1.85;;
35550;SDS011;21655;46.056;13.616;2023-08-12T09:55:40;3.40;;;1.88;;
35550;SDS011;21655;46.056;13.616;2023-08-12T09:58:09;2.83;;;1.83;;
35550;SDS011;21655;46.056;13.616;2023-08-12T10:00:35;3.03;;;1.92;;
35550;SDS011;21655;46.056;13.616;2023-08-12T10:03:01;3.97;;;2.10;;
35550;SDS011;21655;46.056;13.616;2023-08-12T10:05:28;3.33;;;2.10;;
35550;SDS011;21655;46.056;13.616;2023-08-12T10:07:55;3.13;;;1.70;;
35550;SDS011;21655;46.056;13.616;2023-08-12T10:10:21;4.60;;;2.00;;
35550;SDS011;21655;46.056;13.616;2023-08-12T10:12:47;4.38;;;1.90;;
35550;SDS011;21655;46.056;13.616;2023-08-12T10:15:13;4.60;;;2.53;;
35550;SDS011;21655;46.056;13.616;2023-08-12T10:17:39;4.07;;;2.05;;
35550;SDS011;21655;46.056;13.616;2023-08-12T10:20:06;3.50;;;1.90;;
35550;SDS011;21655;46.056;13.616;2023-08-12T10:22:34;5.82;;;2.00;;
35550;SDS011;21655;46.056;13.616;2023-08-12T10:25:01;3.70;;;1.88;;
35550;SDS011;21655;46.056;13.616;2023-08-12T10:27:28;4.78;;;2.03;;
35550;SDS011;21655;46.056;13.616;2023-08-12T10:29:57;6.75;;;2.30;;
35550;SDS011;21655;46.056;13.616;2023-08-12T10:32:23;4.18;;;1.92;;
35550;SDS011;21655;46.056;13.616;2023-08-12T10:34:56;9.50;;;2.40;;
35550;SDS011;21655;46.056;13.616;2023-08-12T10:37:23;3.83;;;2.00;;
35550;SDS011;21655;46.056;13.616;2023-08-12T10:39:51;8.68;;;2.15;;
35550;SDS011;21655;46.056;13.616;2023-08-12T10:45:07;5.55;;;2.05;;
35550;SDS011;21655;46.056;13.616;2023-08-12T10:47:37;3.83;;;1.90;;
35550;SDS011;21655;46.056;13.616;2023-08-12T10:50:20;5.25;;;1.80;;
35550;SDS011;21655;46.056;13.616;2023-08-12T10:52:47;2.65;;;1.80;;
35550;SDS011;21655;46.056;13.616;2023-08-12T10:55:17;3.55;;;1.80;;
35550;SDS011;21655;46.056;13.616;2023-08-12T10:57:43;3.88;;;2.10;;
35550;SDS011;21655;46.056;13.616;2023-08-12T11:00:15;4.20;;;2.03;;
35550;SDS011;21655;46.056;13.616;2023-08-12T11:02:50;4.55;;;1.90;;
35550;SDS011;21655;46.056;13.616;2023-08-12T11:05:17;3.75;;;2.20;;
35550;SDS011;21655;46.056;13.616;2023-08-12T11:08:07;5.07;;;1.95;;
35550;SDS011;21655;46.056;13.616;2023-08-12T11:10:32;3.65;;;1.95;;
35550;SDS011;21655;46.056;13.616;2023-08-12T11:13:00;4.50;;;1.80;;
35550;SDS011;21655;46.056;13.616;2023-08-12T11:15:30;4.32;;;2.08;;
35550;SDS011;21655;46.056;13.616;2023-08-12T11:18:02;4.32;;;1.88;;
35550;SDS011;21655;46.056;13.616;2023-08-12T11:20:35;3.13;;;1.90;;
35550;SDS011;21655;46.056;13.616;2023-08-12T11:23:02;3.25;;;1.98;;
35550;SDS011;21655;46.056;13.616;2023-08-12T11:25:29;4.47;;;1.85;;
35550;SDS011;21655;46.056;13.616;2023-08-12T11:27:56;3.70;;;1.80;;
35550;SDS011;21655;46.056;13.616;2023-08-12T11:30:22;6.15;;;2.10;;
35550;SDS011;21655;46.056;13.616;2023-08-12T11:32:52;4.63;;;2.47;;
35550;SDS011;21655;46.056;13.616;2023-08-12T11:35:19;3.55;;;1.90;;
35550;SDS011;21655;46.056;13.616;2023-08-12T11:37:46;5.03;;;2.00;;
35550;SDS011;21655;46.056;13.616;2023-08-12T11:40:14;5.03;;;2.20;;
35550;SDS011;21655;46.056;13.616;2023-08-12T11:42:42;3.13;;;1.90;;
35550;SDS011;21655;46.056;13.616;2023-08-12T11:45:09;4.40;;;2.08;;
35550;SDS011;21655;46.056;13.616;2023-08-12T11:47:36;3.30;;;1.90;;
35550;SDS011;21655;46.056;13.616;2023-08-12T11:50:03;5.65;;;2.17;;
35550;SDS011;21655;46.056;13.616;2023-08-12T11:52:29;5.32;;;2.38;;
35550;SDS011;21655;46.056;13.616;2023-08-12T11:54:55;5.65;;;2.45;;
35550;SDS011;21655;46.056;13.616;2023-08-12T11:57:22;2.97;;;1.98;;
35550;SDS011;21655;46.056;13.616;2023-08-12T11:59:48;4.82;;;2.75;;
35550;SDS011;21655;46.056;13.616;2023-08-12T12:02:17;4.55;;;2.00;;
35550;SDS011;21655;46.056;13.616;2023-08-12T12:04:42;3.35;;;2.50;;
35550;SDS011;21655;46.056;13.616;2023-08-12T12:07:17;4.05;;;2.40;;
35550;SDS011;21655;46.056;13.616;2023-08-12T12:09:44;4.57;;;2.33;;
35550;SDS011;21655;46.056;13.616;2023-08-12T12:12:10;3.92;;;2.30;;
35550;SDS011;21655;46.056;13.616;2023-08-12T12:14:35;4.35;;;2.40;;
35550;SDS011;21655;46.056;13.616;2023-08-12T12:17:06;7.20;;;2.50;;
35550;SDS011;21655;46.056;13.616;2023-08-12T12:19:34;3.55;;;2.17;;
35550;SDS011;21655;46.056;13.616;2023-08-12T12:22:01;3.33;;;2.38;;
35550;SDS011;21655;46.056;13.616;2023-08-12T12:24:29;6.78;;;2.50;;
35550;SDS011;21655;46.056;13.616;2023-08-12T12:26:56;3.88;;;2.50;;
35550;SDS011;21655;46.056;13.616;2023-08-12T12:29:22;5.90;;;2.35;;
35550;SDS011;21655;46.056;13.616;2023-08-12T12:31:48;3.75;;;2.13;;
35550;SDS011;21655;46.056;13.616;2023-08-12T12:34:14;3.80;;;2.22;;
35550;SDS011;21655;46.056;13.616;2023-08-12T12:36:39;3.05;;;1.98;;
35550;SDS011;21655;46.056;13.616;2023-08-12T12:39:05;2.95;;;2.20;;
35550;SDS011;21655;46.056;13.616;2023-08-12T12:41:32;3.67;;;2.45;;
35550;SDS011;21655;46.056;13.616;2023-08-12T12:44:01;3.50;;;2.22;;
35550;SDS011;21655;46.056;13.616;2023-08-12T12:46:27;3.58;;;2.20;;
35550;SDS011;21655;46.056;13.616;2023-08-12T12:48:53;6.32;;;2.63;;
35550;SDS011;21655;46.056;13.616;2023-08-12T12:51:19;4.25;;;2.33;;
35550;SDS011;21655;46.056;13.616;2023-08-12T12:53:44;6.05;;;2.38;;
35550;SDS011;21655;46.056;13.616;2023-08-12T12:56:10;3.85;;;2.47;;
35550;SDS011;21655;46.056;13.616;2023-08-12T12:58:36;3.80;;;2.20;;
35550;SDS011;21655;46.056;13.616;2023-08-12T13:01:03;4.05;;;2.53;;
35550;SDS011;21655;46.056;13.616;2023-08-12T13:03:30;4.72;;;2.15;;
35550;SDS011;21655;46.056;13.616;2023-08-12T13:05:56;3.90;;;2.35;;
35550;SDS011;21655;46.056;13.616;2023-08-12T13:08:22;4.22;;;2.47;;
35550;SDS011;21655;46.056;13.616;2023-08-12T13:10:48;3.33;;;2.40;;
35550;SDS011;21655;46.056;13.616;2023-08-12T13:13:14;5.15;;;2.30;;
35550;SDS011;21655;46.056;13.616;2023-08-12T13:15:44;3.20;;;2.08;;
35550;SDS011;21655;46.056;13.616;2023-08-12T13:18:10;6.45;;;2.42;;
35550;SDS011;21655;46.056;13.616;2023-08-12T13:20:37;7.38;;;2.58;;
35550;SDS011;21655;46.056;13.616;2023-08-12T13:23:03;3.75;;;2.28;;
35550;SDS011;21655;46.056;13.616;2023-08-12T13:25:29;3.10;;;2.20;;
35550;SDS011;21655;46.056;13.616;2023-08-12T13:27:57;3.17;;;2.00;;
35550;SDS011;21655;46.056;13.616;2023-08-12T13:30:23;6.70;;;2.20;;
35550;SDS011;21655;46.056;13.616;2023-08-12T13:32:49;4.95;;;2.47;;
35550;SDS011;21655;46.056;13.616;2023-08-12T13:35:14;3.63;;;2.40;;
35550;SDS011;21655;46.056;13.616;2023-08-12T13:37:40;3.13;;;2.38;;
35550;SDS011;21655;46.056;13.616;2023-08-12T13:40:05;3.35;;;2.40;;
35550;SDS011;21655;46.056;13.616;2023-08-12T13:42:32;5.38;;;2.47;;
35550;SDS011;21655;46.056;13.616;2023-08-12T13:44:57;7.55;;;2.45;;
35550;SDS011;21655;46.056;13.616;2023-08-12T13:47:22;3.10;;;2.22;;
35550;SDS011;21655;46.056;13.616;2023-08-12T13:49:48;4.97;;;2.40;;
35550;SDS011;21655;46.056;13.616;2023-08-12T13:52:13;5.35;;;2.58;;
35550;SDS011;21655;46.056;13.616;2023-08-12T13:54:39;4.00;;;2.45;;
35550;SDS011;21655;46.056;13.616;2023-08-12T13:57:04;3.53;;;2.10;;
35550;SDS011;21655;46.056;13.616;2023-08-12T13:59:30;3.15;;;2.28;;
35550;SDS011;21655;46.056;13.616;2023-08-12T14:01:55;4.57;;;2.20;;
35550;SDS011;21655;46.056;13.616;2023-08-12T14:04:21;4.32;;;2.83;;
35550;SDS011;21655;46.056;13.616;2023-08-12T14:06:46;2.50;;;2.00;;
35550;SDS011;21655;46.056;13.616;2023-08-12T14:09:12;3.78;;;2.20;;
35550;SDS011;21655;46.056;13.616;2023-08-12T14:11:39;4.40;;;2.30;;
35550;SDS011;21655;46.056;13.616;2023-08-12T14:14:05;3.22;;;2.28;;
35550;SDS011;21655;46.056;13.616;2023-08-12T14:16:30;7.15;;;2.65;;
35550;SDS011;21655;46.056;13.616;2023-08-12T14:18:56;3.30;;;2.30;;
35550;SDS011;21655;46.056;13.616;2023-08-12T14:21:22;3.85;;;2.20;;
35550;SDS011;21655;46.056;13.616;2023-08-12T14:23:47;4.38;;;2.40;;
35550;SDS011;21655;46.056;13.616;2023-08-12T14:26:13;4.88;;;2.15;;
35550;SDS011;21655;46.056;13.616;2023-08-12T14:28:38;3.80;;;2.50;;
35550;SDS011;21655;46.056;13.616;2023-08-12T14:31:03;3.70;;;2.47;;
35550;SDS011;21655;46.056;13.616;2023-08-12T14:33:29;5.07;;;2.40;;
35550;SDS011;21655;46.056;13.616;2023-08-12T14:35:58;4.47;;;2.33;;